createdAt,value
2022-10-16T00:00:59.342Z,4.50
2022-10-16T00:03:29.648Z,7.37
2022-10-16T00:06:00.326Z,9.50
2022-10-16T00:08:28.064Z,9.10
2022-10-16T00:11:00.619Z,7.87
2022-10-16T00:13:28.112Z,7.70
2022-10-16T00:15:57.306Z,9.53
2022-10-16T00:18:25.835Z,8.83
2022-10-16T00:20:53.525Z,12.90
2022-10-16T00:23:21.645Z,6.93
2022-10-16T00:25:59.550Z,12.00
2022-10-16T00:28:27.700Z,6.07
2022-10-16T00:30:55.433Z,6.07
2022-10-16T00:33:23.235Z,6.23
2022-10-16T00:35:50.885Z,7.23
2022-10-16T00:38:18.830Z,8.60
2022-10-16T00:40:46.310Z,9.03
2022-10-16T00:43:15.337Z,6.27
2022-10-16T00:45:42.985Z,6.83
2022-10-16T00:48:14.846Z,10.93
2022-10-16T00:50:42.403Z,7.30
2022-10-16T00:53:09.979Z,7.33
2022-10-16T00:55:41.629Z,6.50
2022-10-16T00:58:10.957Z,7.50
2022-10-16T01:00:38.520Z,6.93
2022-10-16T01:03:23.621Z,4.80
2022-10-16T01:05:54.797Z,5.90
2022-10-16T01:08:45.557Z,5.73
2022-10-16T01:11:22.600Z,5.43
2022-10-16T01:13:54.928Z,5.90
2022-10-16T01:16:31.560Z,5.53
2022-10-16T01:19:03.368Z,4.60
2022-10-16T01:21:36.826Z,3.90
2022-10-16T01:24:14.545Z,9.40
2022-10-16T01:26:45.204Z,6.27
2022-10-16T01:29:30.323Z,2.30
2022-10-16T01:32:02.450Z,3.83
2022-10-16T01:34:40.165Z,7.87
2022-10-16T01:37:09.477Z,6.80
2022-10-16T01:39:38.930Z,4.53
2022-10-16T01:42:08.498Z,7.00
2022-10-16T01:44:37.352Z,3.27
2022-10-16T01:47:05.855Z,2.93
2022-10-16T01:49:34.882Z,3.13
2022-10-16T01:52:06.150Z,5.33
2022-10-16T01:54:35.218Z,3.67
2022-10-16T01:57:03.289Z,2.13
2022-10-16T01:59:32.161Z,4.00
2022-10-16T02:02:05.556Z,7.00
2022-10-16T02:04:38.035Z,2.83
2022-10-16T02:07:05.537Z,3.07
2022-10-16T02:09:34.738Z,3.97
2022-10-16T02:12:05.026Z,5.03
2022-10-16T02:14:32.859Z,3.43
2022-10-16T02:17:00.550Z,7.33
2022-10-16T02:19:28.385Z,3.43
2022-10-16T02:21:57.939Z,6.67
2022-10-16T02:24:28.223Z,3.23
2022-10-16T02:27:01.550Z,1.90
2022-10-16T02:29:29.610Z,4.27
2022-10-16T02:31:59.343Z,2.43
2022-10-16T02:34:27.306Z,1.57
2022-10-16T02:36:55.146Z,5.10
2022-10-16T02:39:22.947Z,4.07
2022-10-16T02:41:50.545Z,4.77
2022-10-16T02:44:18.020Z,3.80
2022-10-16T02:46:45.529Z,3.63
2022-10-16T02:49:13.053Z,2.83
2022-10-16T02:51:40.492Z,3.23
2022-10-16T02:54:07.982Z,3.37
2022-10-16T02:56:35.421Z,1.80
2022-10-16T02:59:03.040Z,3.83
2022-10-16T03:01:30.514Z,3.97
2022-10-16T03:03:58.004Z,3.87
2022-10-16T03:06:25.519Z,4.93
2022-10-16T03:08:53.042Z,3.80
2022-10-16T03:11:20.521Z,4.33
2022-10-16T03:13:47.994Z,2.93
2022-10-16T03:16:15.447Z,1.47
2022-10-16T03:18:42.913Z,2.20
2022-10-16T03:21:10.372Z,2.33
2022-10-16T03:23:37.802Z,2.93
2022-10-16T03:26:05.264Z,2.47
2022-10-16T03:28:33.002Z,1.97
2022-10-16T03:31:00.793Z,4.27
2022-10-16T03:33:28.364Z,1.20
2022-10-16T03:35:56.412Z,1.83
2022-10-16T03:38:23.874Z,2.07
2022-10-16T03:40:51.584Z,4.50
2022-10-16T03:43:19.043Z,1.20
2022-10-16T03:45:46.559Z,2.47
2022-10-16T03:48:14.117Z,2.87
2022-10-16T03:50:41.541Z,3.07
2022-10-16T03:53:09.050Z,2.07
2022-10-16T03:55:36.680Z,2.53
2022-10-16T03:58:04.714Z,1.53
2022-10-16T04:00:32.133Z,1.53
2022-10-16T04:02:59.611Z,1.50
2022-10-16T04:05:27.217Z,2.73
2022-10-16T04:07:54.749Z,2.53
2022-10-16T04:10:22.464Z,1.40
2022-10-16T04:12:49.907Z,1.27
2022-10-16T04:15:17.402Z,2.90
2022-10-16T04:17:44.878Z,2.73
2022-10-16T04:20:12.369Z,1.73
2022-10-16T04:22:39.857Z,3.00
2022-10-16T04:25:07.847Z,2.17
2022-10-16T04:27:35.469Z,1.80
2022-10-16T04:30:04.589Z,1.70
2022-10-16T04:32:32.174Z,2.67
2022-10-16T04:34:59.627Z,2.27
2022-10-16T04:37:28.118Z,1.50
2022-10-16T04:39:55.834Z,3.00
2022-10-16T04:42:23.383Z,3.63
2022-10-16T04:44:51.045Z,4.00
2022-10-16T04:47:18.610Z,4.77
2022-10-16T04:49:46.088Z,1.40
2022-10-16T04:52:13.534Z,3.10
2022-10-16T04:54:41.027Z,2.30
2022-10-16T04:57:08.518Z,2.97
2022-10-16T04:59:35.954Z,2.80
2022-10-16T05:02:03.696Z,1.30
2022-10-16T05:04:31.142Z,6.07
2022-10-16T05:06:58.646Z,5.17
2022-10-16T05:09:26.190Z,2.77
2022-10-16T05:11:53.862Z,4.07
2022-10-16T05:14:21.306Z,2.57
2022-10-16T05:16:49.022Z,3.00
2022-10-16T05:19:27.255Z,3.63
2022-10-16T05:21:55.436Z,1.80
2022-10-16T05:24:22.926Z,5.17
2022-10-16T05:26:52.012Z,3.33
2022-10-16T05:29:19.735Z,2.40
2022-10-16T05:31:47.325Z,3.37
2022-10-16T05:34:14.794Z,3.90
2022-10-16T05:36:42.244Z,2.40
2022-10-16T05:39:09.754Z,3.33
2022-10-16T05:41:37.280Z,3.07
2022-10-16T05:44:07.637Z,4.70
2022-10-16T05:46:35.177Z,2.13
2022-10-16T05:49:02.698Z,2.13
2022-10-16T05:51:30.199Z,4.03
2022-10-16T05:53:57.730Z,1.97
2022-10-16T05:56:25.200Z,2.03
2022-10-16T05:58:52.698Z,4.40
2022-10-16T06:01:20.614Z,3.37
2022-10-16T06:03:48.249Z,6.20
2022-10-16T06:06:16.916Z,2.17
2022-10-16T06:08:45.036Z,3.43
2022-10-16T06:11:16.934Z,4.37
2022-10-16T06:13:44.460Z,4.57
2022-10-16T06:16:12.185Z,4.47
2022-10-16T06:18:40.472Z,3.53
2022-10-16T06:21:12.189Z,5.63
2022-10-16T06:23:39.756Z,2.50
2022-10-16T06:26:08.041Z,3.57
2022-10-16T06:28:35.701Z,4.33
2022-10-16T06:31:07.292Z,3.53
2022-10-16T06:33:37.509Z,4.47
2022-10-16T06:36:06.098Z,5.13
2022-10-16T06:38:33.800Z,3.20
2022-10-16T06:41:01.260Z,4.80
2022-10-16T06:43:30.587Z,3.57
2022-10-16T06:45:58.651Z,5.77
2022-10-16T06:48:26.544Z,3.87
2022-10-16T06:51:01.243Z,5.93
2022-10-16T06:53:36.059Z,5.70
2022-10-16T06:56:10.788Z,6.07
2022-10-16T06:58:38.626Z,1.97
2022-10-16T07:01:06.523Z,5.97
2022-10-16T07:03:34.361Z,3.07
2022-10-16T07:06:05.147Z,8.63
2022-10-16T07:08:35.975Z,3.23
2022-10-16T07:11:04.690Z,3.90
2022-10-16T07:13:34.723Z,4.90
2022-10-16T07:16:08.095Z,2.93
2022-10-16T07:18:36.003Z,6.30
2022-10-16T07:21:11.500Z,4.10
2022-10-16T07:23:39.377Z,3.63
2022-10-16T07:26:07.027Z,6.73
2022-10-16T07:28:34.932Z,4.90
2022-10-16T07:31:07.283Z,4.43
2022-10-16T07:33:35.346Z,6.60
2022-10-16T07:36:04.955Z,4.90
2022-10-16T07:38:32.480Z,5.13
2022-10-16T07:41:00.798Z,4.07
2022-10-16T07:43:28.341Z,2.73
2022-10-16T07:45:56.935Z,4.87
2022-10-16T07:48:28.205Z,3.87
2022-10-16T07:50:58.776Z,5.23
2022-10-16T07:53:27.114Z,3.77
2022-10-16T07:55:58.814Z,3.33
2022-10-16T07:58:26.322Z,5.60
2022-10-16T08:00:53.800Z,4.77
2022-10-16T08:03:21.329Z,4.43
2022-10-16T08:05:49.016Z,5.50
2022-10-16T08:08:23.088Z,4.77
2022-10-16T08:10:56.276Z,4.53
2022-10-16T08:13:23.945Z,2.03
2022-10-16T08:15:51.911Z,3.57
2022-10-16T08:18:19.784Z,6.90
2022-10-16T08:20:47.235Z,4.13
2022-10-16T08:23:14.960Z,3.37
2022-10-16T08:25:42.969Z,2.30
2022-10-16T08:28:11.744Z,4.07
2022-10-16T08:30:39.321Z,2.63
2022-10-16T08:33:06.850Z,3.63
2022-10-16T08:35:34.469Z,2.43
2022-10-16T08:38:04.333Z,2.67
2022-10-16T08:40:33.397Z,3.10
2022-10-16T08:43:19.556Z,3.60
2022-10-16T08:45:47.042Z,1.60
2022-10-16T08:48:28.265Z,3.30
2022-10-16T08:50:55.809Z,1.83
2022-10-16T08:53:30.000Z,2.53
2022-10-16T08:55:57.717Z,1.80
2022-10-16T08:58:28.537Z,3.97
2022-10-16T09:00:57.380Z,4.67
2022-10-16T09:03:24.967Z,4.30
2022-10-16T09:06:11.498Z,2.07
2022-10-16T09:08:45.131Z,3.03
2022-10-16T09:11:15.617Z,2.70
2022-10-16T09:13:57.611Z,2.83
2022-10-16T09:16:46.553Z,1.60
2022-10-16T09:19:25.746Z,1.30
2022-10-16T09:21:53.280Z,2.37
2022-10-16T09:24:25.606Z,1.13
2022-10-16T09:26:56.200Z,1.63
2022-10-16T09:29:23.800Z,3.97
2022-10-16T09:31:51.375Z,2.07
2022-10-16T09:34:34.969Z,2.60
2022-10-16T09:37:04.784Z,2.77
2022-10-16T09:39:32.272Z,3.70
2022-10-16T09:41:59.798Z,2.97
2022-10-16T09:44:31.712Z,2.80
2022-10-16T09:47:05.875Z,1.77
2022-10-16T09:49:33.399Z,2.43
2022-10-16T09:52:27.223Z,2.17
2022-10-16T09:54:55.953Z,2.33
2022-10-16T09:57:24.039Z,3.40
2022-10-16T09:59:53.041Z,4.60
2022-10-16T10:02:24.955Z,1.63
2022-10-16T10:04:53.650Z,2.53
2022-10-16T10:07:28.731Z,4.33
2022-10-16T10:09:58.326Z,1.63
2022-10-16T10:12:27.347Z,5.17
2022-10-16T10:14:57.371Z,4.10
2022-10-16T10:17:25.881Z,3.67
2022-10-16T10:20:00.913Z,1.03
2022-10-16T10:22:31.199Z,2.70
2022-10-16T10:25:04.783Z,3.40
2022-10-16T10:27:47.203Z,3.33
2022-10-16T10:30:33.542Z,1.87
2022-10-16T10:33:07.464Z,7.80
2022-10-16T10:35:46.010Z,2.77
2022-10-16T10:38:31.472Z,1.53
2022-10-16T10:41:06.128Z,3.63
2022-10-16T10:43:52.132Z,5.27
2022-10-16T10:46:28.555Z,3.60
2022-10-16T10:48:56.026Z,4.47
2022-10-16T10:51:29.565Z,4.40
2022-10-16T10:54:04.742Z,3.70
2022-10-16T10:56:41.271Z,5.13
2022-10-16T10:59:14.740Z,2.77
2022-10-16T11:01:57.988Z,3.43
2022-10-16T11:04:43.913Z,3.13
2022-10-16T11:07:24.026Z,1.97
2022-10-16T11:09:54.823Z,1.17
2022-10-16T11:12:22.351Z,1.80
2022-10-16T11:15:02.951Z,5.07
2022-10-16T11:17:33.555Z,3.53
2022-10-16T11:20:16.189Z,1.57
2022-10-16T11:22:46.553Z,4.90
2022-10-16T11:25:19.462Z,4.63
2022-10-16T11:27:46.938Z,2.10
2022-10-16T11:30:18.665Z,1.63
2022-10-16T11:32:52.392Z,2.17
2022-10-16T11:35:22.962Z,3.43
2022-10-16T11:37:51.781Z,3.53
2022-10-16T11:40:39.460Z,2.10
2022-10-16T11:43:18.865Z,1.93
2022-10-16T11:45:53.293Z,2.33
2022-10-16T11:48:27.081Z,1.37
2022-10-16T11:50:55.958Z,2.60
2022-10-16T11:53:36.501Z,2.13
2022-10-16T11:56:05.186Z,2.83
2022-10-16T11:58:41.089Z,3.17
2022-10-16T12:01:08.586Z,4.47
2022-10-16T12:03:40.597Z,1.90
2022-10-16T12:06:23.229Z,2.00
2022-10-16T12:08:51.126Z,1.97
2022-10-16T12:11:21.457Z,4.07
2022-10-16T12:13:49.103Z,3.07
2022-10-16T12:16:16.558Z,7.77
2022-10-16T12:18:45.454Z,3.43
2022-10-16T12:21:14.027Z,2.00
2022-10-16T12:23:55.744Z,1.60
2022-10-16T12:26:30.482Z,2.97
2022-10-16T12:28:58.911Z,3.87
2022-10-16T12:31:54.539Z,3.97
2022-10-16T12:34:40.237Z,1.83
2022-10-16T12:37:12.913Z,2.10
2022-10-16T12:39:40.647Z,1.63
2022-10-16T12:42:21.863Z,2.87
2022-10-16T12:44:49.391Z,4.00
2022-10-16T12:47:22.577Z,2.33
2022-10-16T12:49:51.200Z,6.60
2022-10-16T12:52:27.965Z,2.03
2022-10-16T12:54:58.251Z,3.87
2022-10-16T12:57:44.541Z,1.60
2022-10-16T13:00:22.661Z,1.77
2022-10-16T13:03:10.393Z,3.20
2022-10-16T13:05:43.083Z,5.00
2022-10-16T13:08:10.702Z,2.17
2022-10-16T13:10:53.506Z,2.27
2022-10-16T13:13:23.776Z,3.73
2022-10-16T13:16:09.246Z,2.37
2022-10-16T13:18:48.763Z,3.20
2022-10-16T13:21:16.224Z,1.87
2022-10-16T13:26:40.466Z,7.33
2022-10-16T13:29:08.135Z,2.30
2022-10-16T13:31:35.645Z,2.57
2022-10-16T13:34:03.246Z,1.13
2022-10-16T13:36:32.273Z,3.00
2022-10-16T13:39:02.925Z,3.00
2022-10-16T13:41:30.400Z,2.90
2022-10-16T13:43:58.276Z,2.93
2022-10-16T13:46:26.573Z,3.27
2022-10-16T13:49:00.432Z,3.13
2022-10-16T13:51:28.000Z,2.77
2022-10-16T13:53:56.981Z,1.10
2022-10-16T13:56:26.694Z,1.90
2022-10-16T13:59:04.811Z,1.83
2022-10-16T14:01:51.250Z,2.50
2022-10-16T14:04:18.887Z,4.90
2022-10-16T14:06:47.762Z,2.83
2022-10-16T14:09:24.135Z,1.60
2022-10-16T14:11:52.954Z,3.80
2022-10-16T14:14:20.634Z,5.47
2022-10-16T14:16:48.839Z,4.80
2022-10-16T14:19:29.793Z,4.37
2022-10-16T14:22:00.491Z,1.90
2022-10-16T14:24:29.332Z,1.77
2022-10-16T14:26:56.875Z,2.73
2022-10-16T14:29:25.302Z,2.93
2022-10-16T14:31:56.454Z,2.40
2022-10-16T14:34:25.262Z,6.37
2022-10-16T14:36:52.839Z,3.17
2022-10-16T14:39:22.092Z,3.33
2022-10-16T14:41:51.186Z,3.23
2022-10-16T14:44:19.627Z,1.67
2022-10-16T14:46:47.650Z,3.63
2022-10-16T14:49:17.744Z,1.57
2022-10-16T14:51:45.555Z,2.57
2022-10-16T14:54:17.378Z,3.33
2022-10-16T14:56:44.843Z,1.83
2022-10-16T14:59:16.338Z,2.43
2022-10-16T15:01:44.934Z,2.03
2022-10-16T15:04:13.552Z,2.43
2022-10-16T15:06:41.262Z,3.23
2022-10-16T15:09:08.947Z,1.67
2022-10-16T15:11:36.618Z,3.03
2022-10-16T15:14:04.218Z,2.30
2022-10-16T15:16:31.979Z,4.27
2022-10-16T15:18:59.545Z,2.50
2022-10-16T15:21:28.411Z,2.13
2022-10-16T15:23:56.285Z,1.00
2022-10-16T15:26:24.567Z,1.60
2022-10-16T15:28:52.195Z,1.03
2022-10-16T15:31:19.834Z,4.07
2022-10-16T15:33:47.380Z,2.10
2022-10-16T15:36:15.049Z,2.67
2022-10-16T15:38:42.519Z,2.20
2022-10-16T15:41:10.284Z,5.20
2022-10-16T15:43:37.917Z,2.07
2022-10-16T15:46:07.410Z,2.50
2022-10-16T15:48:35.383Z,2.30
2022-10-16T15:51:06.397Z,3.17
2022-10-16T15:53:34.047Z,3.43
2022-10-16T15:56:08.030Z,3.77
2022-10-16T15:58:35.997Z,4.03
2022-10-16T16:01:03.800Z,4.37
2022-10-16T16:03:31.670Z,3.77
2022-10-16T16:05:59.476Z,2.70
2022-10-16T16:08:27.015Z,1.30
2022-10-16T16:11:06.015Z,2.73
2022-10-16T16:13:33.578Z,2.57
2022-10-16T16:16:01.161Z,2.37
2022-10-16T16:18:28.903Z,4.07
2022-10-16T16:20:56.445Z,4.47
2022-10-16T16:26:33.959Z,3.40
2022-10-16T16:29:01.705Z,4.47
2022-10-16T16:31:29.806Z,13.07
2022-10-16T16:33:57.626Z,8.97
2022-10-16T16:36:25.766Z,6.20
2022-10-16T16:38:53.435Z,5.70
2022-10-16T16:41:27.951Z,5.33
2022-10-16T16:43:56.331Z,5.03
2022-10-16T16:46:24.139Z,5.53
2022-10-16T16:48:51.606Z,6.70
2022-10-16T16:51:19.841Z,6.27
2022-10-16T16:53:48.405Z,5.33
2022-10-16T16:56:16.206Z,4.90
2022-10-16T16:58:46.588Z,4.90
2022-10-16T17:01:21.967Z,5.90
2022-10-16T17:03:51.503Z,4.70
2022-10-16T17:06:20.981Z,4.67
2022-10-16T17:08:49.338Z,5.10
2022-10-16T17:11:18.320Z,2.97
2022-10-16T17:13:46.103Z,3.73
2022-10-16T17:16:13.626Z,3.70
2022-10-16T17:18:41.323Z,5.37
2022-10-16T17:21:09.378Z,5.07
2022-10-16T17:23:37.866Z,6.83
2022-10-16T17:26:13.212Z,7.33
2022-10-16T17:28:41.232Z,5.97
2022-10-16T17:31:13.218Z,4.93
2022-10-16T17:33:41.623Z,4.27
2022-10-16T17:36:09.410Z,2.83
2022-10-16T17:38:36.942Z,5.20
2022-10-16T17:41:11.976Z,3.17
2022-10-16T17:43:40.126Z,6.17
2022-10-16T17:46:08.278Z,5.77
2022-10-16T17:48:39.641Z,3.90
2022-10-16T17:51:08.259Z,5.07
2022-10-16T17:53:36.052Z,11.57
2022-10-16T17:56:07.917Z,3.77
2022-10-16T17:58:35.949Z,4.53
2022-10-16T18:01:03.841Z,3.27
2022-10-16T18:03:31.362Z,4.87
2022-10-16T18:05:58.963Z,6.87
2022-10-16T18:08:28.767Z,2.73
2022-10-16T18:10:56.532Z,4.97
2022-10-16T18:13:24.071Z,5.03
2022-10-16T18:16:13.887Z,3.73
2022-10-16T18:18:48.872Z,5.93
2022-10-16T18:21:26.552Z,5.27
2022-10-16T18:23:54.323Z,5.83
2022-10-16T18:26:22.413Z,6.23
2022-10-16T18:28:54.079Z,2.93
2022-10-16T18:31:24.515Z,5.80
2022-10-16T18:33:57.033Z,5.13
2022-10-16T18:36:29.107Z,4.70
2022-10-16T18:38:57.471Z,4.97
2022-10-16T18:41:26.014Z,7.03
2022-10-16T18:43:54.055Z,6.53
2022-10-16T18:46:22.445Z,5.63
2022-10-16T18:48:50.398Z,6.43
2022-10-16T18:51:20.910Z,8.47
2022-10-16T18:53:50.144Z,5.80
2022-10-16T18:56:19.055Z,3.53
2022-10-16T18:58:47.210Z,5.23
2022-10-16T19:01:16.795Z,7.87
2022-10-16T19:03:44.513Z,7.33
2022-10-16T19:06:12.841Z,6.70
2022-10-16T19:08:40.723Z,7.10
2022-10-16T19:11:12.587Z,6.60
2022-10-16T19:13:40.237Z,11.93
2022-10-16T19:16:20.973Z,7.80
2022-10-16T19:18:49.811Z,6.67
2022-10-16T19:21:17.478Z,5.90
2022-10-16T19:23:45.480Z,4.70
2022-10-16T19:26:16.292Z,7.10
2022-10-16T19:28:44.259Z,30.30
2022-10-16T19:31:40.584Z,20.97
2022-10-16T19:34:12.014Z,14.07
2022-10-16T19:36:42.431Z,19.43
2022-10-16T19:39:14.222Z,17.53
2022-10-16T19:41:42.130Z,20.27
2022-10-16T19:44:11.570Z,23.10
2022-10-16T19:46:40.211Z,21.60
2022-10-16T19:49:12.442Z,41.80
2022-10-16T19:51:42.600Z,45.00
2022-10-16T19:54:20.982Z,91.20
2022-10-16T19:56:52.793Z,16.87
2022-10-16T19:59:22.500Z,10.63
2022-10-16T20:01:52.585Z,8.33
2022-10-16T20:04:22.827Z,10.47
2022-10-16T20:06:50.599Z,4.83
2022-10-16T20:09:21.680Z,3.77
2022-10-16T20:11:49.225Z,11.27
2022-10-16T20:14:17.010Z,13.03
2022-10-16T20:16:44.654Z,21.13
2022-10-16T20:19:12.100Z,19.97
2022-10-16T20:21:39.668Z,14.57
2022-10-16T20:24:08.510Z,12.97
2022-10-16T20:26:36.606Z,16.10
2022-10-16T20:29:05.053Z,19.53
2022-10-16T20:31:33.237Z,23.07
2022-10-16T20:34:03.100Z,17.87
2022-10-16T20:36:30.904Z,12.67
2022-10-16T20:38:58.462Z,7.20
2022-10-16T20:41:26.030Z,18.67
2022-10-16T20:43:53.565Z,12.97
2022-10-16T20:46:22.219Z,8.73
2022-10-16T20:48:50.120Z,18.50
2022-10-16T20:51:19.521Z,14.37
2022-10-16T20:53:48.614Z,19.00
2022-10-16T20:56:16.393Z,18.53
2022-10-16T20:58:44.265Z,6.53
2022-10-16T21:01:13.961Z,6.93
2022-10-16T21:03:42.074Z,11.00
2022-10-16T21:06:10.997Z,16.13
2022-10-16T21:08:39.500Z,8.60
2022-10-16T21:11:17.598Z,12.90
2022-10-16T21:13:45.268Z,19.57
2022-10-16T21:16:13.226Z,13.13
2022-10-16T21:18:44.382Z,15.93
2022-10-16T21:21:20.000Z,9.47
2022-10-16T21:23:48.238Z,10.67
2022-10-16T21:26:16.320Z,14.60
2022-10-16T21:28:44.055Z,7.00
2022-10-16T21:31:15.283Z,4.30
2022-10-16T21:33:42.790Z,5.47
2022-10-16T21:36:14.816Z,3.83
2022-10-16T21:38:42.462Z,4.70
2022-10-16T21:41:17.050Z,4.33
2022-10-16T21:43:45.114Z,2.70
2022-10-16T21:46:12.878Z,3.00
2022-10-16T21:48:41.604Z,3.97
2022-10-16T21:51:09.805Z,4.03
2022-10-16T21:53:37.555Z,5.43
2022-10-16T21:56:05.574Z,3.30
2022-10-16T21:58:33.529Z,4.07
2022-10-16T22:01:07.177Z,3.20
2022-10-16T22:03:34.731Z,4.47
2022-10-16T22:06:06.831Z,7.00
2022-10-16T22:08:35.120Z,3.57
2022-10-16T22:11:05.740Z,6.00
2022-10-16T22:13:33.506Z,4.20
2022-10-16T22:16:01.017Z,3.77
2022-10-16T22:18:28.682Z,4.10
2022-10-16T22:20:56.230Z,7.03
2022-10-16T22:23:23.971Z,5.13
2022-10-16T22:25:51.832Z,4.77
2022-10-16T22:28:19.772Z,7.17
2022-10-16T22:30:47.347Z,3.77
2022-10-16T22:33:14.783Z,5.33
2022-10-16T22:35:42.250Z,3.90
2022-10-16T22:38:09.663Z,8.30
2022-10-16T22:40:37.773Z,5.03
2022-10-16T22:43:05.971Z,8.37
2022-10-16T22:45:34.520Z,6.30
2022-10-16T22:48:02.156Z,8.30
2022-10-16T22:50:29.709Z,6.20
2022-10-16T22:52:57.674Z,9.17
2022-10-16T22:55:25.242Z,5.97
2022-10-16T22:57:52.708Z,7.53
2022-10-16T23:00:20.334Z,5.60
2022-10-16T23:02:47.847Z,8.03
2022-10-16T23:05:16.143Z,10.93
2022-10-16T23:07:43.634Z,11.13
2022-10-16T23:10:11.167Z,11.93
2022-10-16T23:12:38.666Z,7.20
2022-10-16T23:15:06.447Z,10.57
2022-10-16T23:17:34.022Z,10.80
2022-10-16T23:20:01.517Z,11.07
2022-10-16T23:22:29.321Z,8.63
2022-10-16T23:24:57.045Z,11.63
2022-10-16T23:27:24.759Z,8.30
2022-10-16T23:29:52.333Z,7.80
2022-10-16T23:32:19.800Z,9.97
2022-10-16T23:34:47.520Z,9.57
2022-10-16T23:37:15.164Z,10.37
2022-10-16T23:39:42.699Z,8.20
2022-10-16T23:42:10.308Z,10.73
2022-10-16T23:44:37.824Z,9.53
2022-10-16T23:47:05.345Z,8.93
2022-10-16T23:49:32.998Z,13.23
2022-10-16T23:52:00.447Z,10.73
2022-10-16T23:54:27.977Z,12.67
2022-10-16T23:56:55.512Z,13.57
2022-10-16T23:59:23.048Z,13.83
